Time;durP1;ratioP1;P1;durP2;ratioP2;P2;SDS_P1;SDS_P2;PMS_P1;PMS_P2;Temp;Humidity;BMP_temperature;BMP_pressure;BME280_temperature;BME280_humidity;BME280_pressure;Samples;Min_cycle;Max_cycle;Signal;HPM_P1;HPM_P2
2021/12/22 00:00:34;;;;;;;27.17;15.57;;;;;;;;;;5017082;28;20104;-61
2021/12/22 00:03:00;;;;;;;27.83;14.95;;;;;;;;;;5023869;28;20049;-61
2021/12/22 00:05:30;;;;;;;31.38;15.80;;;;;;;;;;5005144;28;20107;-61
2021/12/22 00:07:57;;;;;;;28.02;15.10;;;;;;;;;;5019870;28;20049;-61
2021/12/22 00:10:23;;;;;;;26.35;14.38;;;;;;;;;;5018286;28;20060;-61
2021/12/22 00:12:50;;;;;;;29.25;15.57;;;;;;;;;;5014776;28;20060;-63
2021/12/22 00:15:17;;;;;;;26.42;14.20;;;;;;;;;;5024942;28;20092;-63
2021/12/22 00:17:43;;;;;;;30.05;15.38;;;;;;;;;;5018163;28;20064;-64
2021/12/22 00:20:11;;;;;;;28.90;15.20;;;;;;;;;;5025224;28;20049;-61
2021/12/22 00:22:37;;;;;;;29.13;14.45;;;;;;;;;;5011225;28;20140;-61
2021/12/22 00:25:04;;;;;;;25.98;14.23;;;;;;;;;;5023069;28;20064;-62
2021/12/22 00:27:30;;;;;;;27.30;13.98;;;;;;;;;;5024816;28;20046;-61
2021/12/22 00:29:56;;;;;;;28.20;15.02;;;;;;;;;;5016666;28;20057;-61
2021/12/22 00:32:24;;;;;;;25.08;13.38;;;;;;;;;;5025719;28;20462;-61
2021/12/22 00:34:54;;;;;;;29.85;14.77;;;;;;;;;;5011824;28;20053;-61
2021/12/22 00:37:23;;;;;;;28.55;14.52;;;;;;;;;;5019606;28;20076;-62
2021/12/22 00:39:50;;;;;;;28.13;14.93;;;;;;;;;;5015793;28;20046;-61
2021/12/22 00:42:18;;;;;;;30.08;15.65;;;;;;;;;;5013274;28;20426;-61
2021/12/22 00:44:50;;;;;;;27.92;16.08;;;;;;;;;;5019081;28;20052;-60
2021/12/22 00:47:17;;;;;;;31.30;16.10;;;;;;;;;;5015605;28;20057;-62
2021/12/22 00:49:44;;;;;;;29.80;16.35;;;;;;;;;;5018938;28;20511;-62
2021/12/22 00:52:10;;;;;;;32.67;15.57;;;;;;;;;;5010155;28;20466;-61
2021/12/22 00:54:37;;;;;;;29.08;14.77;;;;;;;;;;5023114;28;20049;-62
2021/12/22 00:57:05;;;;;;;27.15;13.43;;;;;;;;;;5014954;28;20077;-61
2021/12/22 00:59:33;;;;;;;26.75;13.73;;;;;;;;;;5023874;28;20069;-62
2021/12/22 01:02:00;;;;;;;23.65;14.07;;;;;;;;;;5019759;28;20521;-62
2021/12/22 01:04:26;;;;;;;29.05;14.63;;;;;;;;;;5009509;28;20053;-62
2021/12/22 01:06:53;;;;;;;29.08;14.90;;;;;;;;;;5022282;28;20475;-61
2021/12/22 01:09:19;;;;;;;33.17;15.40;;;;;;;;;;4997159;28;20057;-61
2021/12/22 01:11:46;;;;;;;26.45;15.30;;;;;;;;;;5013923;28;20053;-58
2021/12/22 01:14:13;;;;;;;27.05;14.85;;;;;;;;;;5016119;28;20061;-62
2021/12/22 01:16:39;;;;;;;28.23;14.90;;;;;;;;;;5012719;28;20053;-61
2021/12/22 01:19:13;;;;;;;27.63;14.55;;;;;;;;;;5013544;28;20549;-62
2021/12/22 01:21:48;;;;;;;26.65;15.15;;;;;;;;;;4998476;28;20533;-61
2021/12/22 01:24:33;;;;;;;31.33;15.27;;;;;;;;;;5015290;28;20053;-62
2021/12/22 01:27:06;;;;;;;25.05;14.80;;;;;;;;;;5007732;28;20056;-62
2021/12/22 01:29:34;;;;;;;27.38;15.23;;;;;;;;;;5022426;28;20057;-61
2021/12/22 01:32:01;;;;;;;26.48;14.38;;;;;;;;;;5006638;28;20045;-61
2021/12/22 01:34:27;;;;;;;27.42;14.52;;;;;;;;;;5019979;28;20064;-62
2021/12/22 01:36:54;;;;;;;26.60;14.85;;;;;;;;;;5013786;28;20052;-62
2021/12/22 01:39:20;;;;;;;29.00;15.10;;;;;;;;;;5021440;28;20056;-61
2021/12/22 01:41:47;;;;;;;31.13;15.48;;;;;;;;;;5003102;28;20045;-62
2021/12/22 01:44:25;;;;;;;39.80;16.10;;;;;;;;;;4997627;28;20053;-63
2021/12/22 01:49:43;;;;;;;27.83;14.75;;;;;;;;;;5013686;28;20397;-64
2021/12/22 01:52:10;;;;;;;25.63;14.77;;;;;;;;;;5021866;28;20045;-65
2021/12/22 01:55:03;;;;;;;31.17;15.27;;;;;;;;;;4998584;28;20524;-64
2021/12/22 01:57:30;;;;;;;25.70;14.50;;;;;;;;;;4999462;28;20574;-64
2021/12/22 01:59:59;;;;;;;27.83;14.55;;;;;;;;;;5009296;28;20053;-64
2021/12/22 02:02:26;;;;;;;29.98;14.10;;;;;;;;;;5016395;28;20057;-63
2021/12/22 02:04:53;;;;;;;25.42;14.18;;;;;;;;;;5003248;28;20046;-63
2021/12/22 02:07:19;;;;;;;25.13;13.27;;;;;;;;;;5005590;28;20053;-62
2021/12/22 02:12:23;;;;;;;28.42;14.82;;;;;;;;;;5000663;28;20057;-60
2021/12/22 02:14:49;;;;;;;28.45;14.15;;;;;;;;;;5018120;28;20068;-63
2021/12/22 02:17:16;;;;;;;36.00;16.42;;;;;;;;;;5015693;28;20072;-62
2021/12/22 02:19:44;;;;;;;33.13;16.13;;;;;;;;;;5020896;28;20494;-62
2021/12/22 02:22:13;;;;;;;29.67;14.35;;;;;;;;;;5007601;28;20068;-63
2021/12/22 02:24:57;;;;;;;29.88;14.57;;;;;;;;;;5015707;28;20433;-62
2021/12/22 02:27:32;;;;;;;28.83;14.50;;;;;;;;;;5015037;28;20502;-62
2021/12/22 02:30:02;;;;;;;32.85;15.73;;;;;;;;;;5013023;28;20488;-61
2021/12/22 02:35:14;;;;;;;29.38;15.07;;;;;;;;;;5014427;28;20057;-62
2021/12/22 02:37:45;;;;;;;35.33;16.15;;;;;;;;;;5013405;28;20064;-62
2021/12/22 02:40:15;;;;;;;34.97;16.58;;;;;;;;;;4992691;28;20203;-61
2021/12/22 02:42:42;;;;;;;38.05;17.23;;;;;;;;;;5017164;28;20057;-62
2021/12/22 02:45:12;;;;;;;33.67;17.98;;;;;;;;;;5021448;28;20060;-63
2021/12/22 02:47:38;;;;;;;31.88;16.80;;;;;;;;;;5009282;28;20053;-63
2021/12/22 02:50:06;;;;;;;30.35;15.93;;;;;;;;;;5021262;28;20052;-61
2021/12/22 02:52:45;;;;;;;33.80;16.75;;;;;;;;;;5014198;28;20054;-63
2021/12/22 02:55:11;;;;;;;37.55;16.80;;;;;;;;;;5014580;28;20080;-62
2021/12/22 02:57:42;;;;;;;33.58;15.60;;;;;;;;;;5011145;28;20054;-62
2021/12/22 03:03:14;;;;;;;35.53;16.27;;;;;;;;;;5013464;28;20940;-62
2021/12/22 03:05:40;;;;;;;41.28;16.40;;;;;;;;;;5016771;28;20053;-62
2021/12/22 03:08:07;;;;;;;39.35;16.50;;;;;;;;;;5016692;28;20064;-61
2021/12/22 03:10:34;;;;;;;36.70;16.52;;;;;;;;;;5008948;28;20133;-62
2021/12/22 03:13:04;;;;;;;;;;;;;;;;;;5013018;28;20152;-63
2021/12/22 03:15:31;;;;;;;51.72;17.02;;;;;;;;;;5020592;28;20027;-63
2021/12/22 03:17:57;;;;;;;35.15;15.80;;;;;;;;;;5027922;28;20144;-63
2021/12/22 03:20:24;;;;;;;40.17;17.02;;;;;;;;;;4993991;28;20041;-63
2021/12/22 03:22:51;;;;;;;52.40;18.23;;;;;;;;;;5020268;28;20049;-63
2021/12/22 03:25:20;;;;;;;44.78;16.50;;;;;;;;;;5013012;28;20053;-63
2021/12/22 03:27:46;;;;;;;;;;;;;;;;;;5017130;28;20073;-62
2021/12/22 03:30:14;;;;;;;31.45;15.38;;;;;;;;;;5024776;28;19972;-61
2021/12/22 03:32:40;;;;;;;35.95;16.17;;;;;;;;;;5017006;28;20053;-63
2021/12/22 03:35:07;;;;;;;34.20;15.60;;;;;;;;;;5023985;28;20498;-63
2021/12/22 03:37:33;;;;;;;34.75;16.10;;;;;;;;;;5009883;28;20061;-63
2021/12/22 03:40:00;;;;;;;36.92;15.27;;;;;;;;;;5023944;28;20088;-63
2021/12/22 03:42:26;;;;;;;34.05;16.40;;;;;;;;;;5020664;28;20060;-63
2021/12/22 03:44:53;;;;;;;34.47;14.77;;;;;;;;;;5016787;28;20090;-61
2021/12/22 03:47:21;;;;;;;42.20;16.92;;;;;;;;;;5024833;28;20076;-63
2021/12/22 03:49:48;;;;;;;37.03;16.48;;;;;;;;;;5010373;28;20046;-63
2021/12/22 03:52:15;;;;;;;38.22;17.38;;;;;;;;;;5019881;28;20057;-61
2021/12/22 03:54:41;;;;;;;35.50;15.63;;;;;;;;;;5016370;28;20564;-63
2021/12/22 03:57:08;;;;;;;34.58;15.38;;;;;;;;;;5025613;28;20041;-63
2021/12/22 03:59:34;;;;;;;34.35;16.35;;;;;;;;;;5024730;28;20053;-62
2021/12/22 04:02:01;;;;;;;32.28;14.70;;;;;;;;;;5019644;28;20520;-63
2021/12/22 04:04:29;;;;;;;30.77;14.45;;;;;;;;;;5020590;28;20053;-63
2021/12/22 04:06:56;;;;;;;35.00;14.82;;;;;;;;;;5014992;28;20410;-63
2021/12/22 04:09:27;;;;;;;28.73;13.85;;;;;;;;;;5024836;28;20050;-63
2021/12/22 04:11:54;;;;;;;38.85;15.82;;;;;;;;;;5007787;28;20050;-62
2021/12/22 04:14:20;;;;;;;31.45;14.27;;;;;;;;;;5021110;28;20520;-63
2021/12/22 04:16:46;;;;;;;27.80;13.70;;;;;;;;;;5015515;28;20045;-62
2021/12/22 04:19:13;;;;;;;24.00;12.80;;;;;;;;;;5017685;28;20088;-63
2021/12/22 04:21:39;;;;;;;27.58;13.75;;;;;;;;;;5024291;28;20060;-62
2021/12/22 04:24:07;;;;;;;24.52;12.48;;;;;;;;;;5016777;28;20061;-61
2021/12/22 04:26:34;;;;;;;23.58;12.15;;;;;;;;;;5024826;28;20084;-63
2021/12/22 04:29:00;;;;;;;22.17;11.95;;;;;;;;;;5014702;28;20049;-63
2021/12/22 04:31:27;;;;;;;27.88;14.07;;;;;;;;;;5018368;28;20498;-62
2021/12/22 04:33:53;;;;;;;26.63;12.90;;;;;;;;;;5018832;28;20076;-63
2021/12/22 04:36:19;;;;;;;23.02;11.50;;;;;;;;;;5017618;28;20143;-63
2021/12/22 04:38:46;;;;;;;21.90;11.07;;;;;;;;;;5022608;28;20058;-63
2021/12/22 04:41:12;;;;;;;24.02;11.23;;;;;;;;;;5016612;28;20057;-62
2021/12/22 04:43:38;;;;;;;26.75;12.27;;;;;;;;;;5016858;28;20060;-62
2021/12/22 04:46:05;;;;;;;20.98;10.98;;;;;;;;;;5013249;28;20060;-63
2021/12/22 04:48:34;;;;;;;23.05;11.68;;;;;;;;;;5022713;28;20049;-63
2021/12/22 04:51:00;;;;;;;23.77;12.18;;;;;;;;;;5018462;28;20075;-62
2021/12/22 04:53:36;;;;;;;24.08;10.98;;;;;;;;;;5020597;28;20060;-62
2021/12/22 04:56:02;;;;;;;21.80;11.85;;;;;;;;;;5024020;28;20049;-62
2021/12/22 04:58:28;;;;;;;26.23;12.50;;;;;;;;;;5011475;28;20053;-63
2021/12/22 05:00:55;;;;;;;26.60;12.77;;;;;;;;;;5018092;28;20045;-63
2021/12/22 05:03:21;;;;;;;22.90;11.20;;;;;;;;;;5017337;28;20506;-61
2021/12/22 05:05:48;;;;;;;24.25;11.35;;;;;;;;;;5024044;28;20496;-63
2021/12/22 05:08:16;;;;;;;23.40;11.43;;;;;;;;;;5017789;28;20062;-62
2021/12/22 05:10:42;;;;;;;22.00;11.20;;;;;;;;;;5022933;28;20053;-63
2021/12/22 05:13:08;;;;;;;24.50;11.93;;;;;;;;;;5003600;28;20054;-63
2021/12/22 05:15:39;;;;;;;26.25;13.02;;;;;;;;;;5011877;28;20057;-62
2021/12/22 05:18:24;;;;;;;26.25;11.55;;;;;;;;;;5023193;28;20052;-62
2021/12/22 05:20:51;;;;;;;27.90;12.23;;;;;;;;;;5015372;28;20057;-63
2021/12/22 05:23:18;;;;;;;28.52;13.10;;;;;;;;;;5023617;28;20068;-61
2021/12/22 05:25:44;;;;;;;26.95;13.05;;;;;;;;;;5015404;28;20354;-63
2021/12/22 05:28:10;;;;;;;31.60;13.02;;;;;;;;;;5012297;28;20053;-63
2021/12/22 05:30:37;;;;;;;31.55;12.98;;;;;;;;;;5022513;28;20569;-62
2021/12/22 05:33:03;;;;;;;35.75;14.88;;;;;;;;;;4987491;28;20054;-62
2021/12/22 05:35:30;;;;;;;26.35;13.48;;;;;;;;;;5009195;28;20045;-62
2021/12/22 05:37:56;;;;;;;30.02;12.18;;;;;;;;;;5002457;28;20502;-61
2021/12/22 05:40:27;;;;;;;27.02;12.95;;;;;;;;;;5011672;28;20050;-61
2021/12/22 05:42:54;;;;;;;28.17;13.20;;;;;;;;;;4991645;28;20561;-62
2021/12/22 05:45:21;;;;;;;27.30;12.20;;;;;;;;;;5013926;28;20041;-62
2021/12/22 05:47:47;;;;;;;25.13;12.20;;;;;;;;;;5023070;28;20482;-61
2021/12/22 05:50:13;;;;;;;26.13;12.98;;;;;;;;;;5015137;28;20050;-62
2021/12/22 05:52:40;;;;;;;27.90;13.32;;;;;;;;;;5022768;28;20055;-62
2021/12/22 05:55:06;;;;;;;24.50;12.07;;;;;;;;;;5007604;28;20049;-62
2021/12/22 05:57:32;;;;;;;26.65;12.77;;;;;;;;;;5020556;28;20037;-62
2021/12/22 05:59:59;;;;;;;26.38;13.20;;;;;;;;;;5014053;28;20045;-61
2021/12/22 06:02:26;;;;;;;26.95;13.13;;;;;;;;;;5003038;28;20054;-62
2021/12/22 06:04:52;;;;;;;30.27;13.45;;;;;;;;;;5010685;28;20082;-61
2021/12/22 06:07:19;;;;;;;28.27;13.60;;;;;;;;;;5007837;28;20262;-62
2021/12/22 06:09:45;;;;;;;30.15;14.20;;;;;;;;;;5017839;28;20072;-61
2021/12/22 06:12:11;;;;;;;30.75;13.82;;;;;;;;;;5012212;28;20060;-61
2021/12/22 06:14:38;;;;;;;31.42;13.95;;;;;;;;;;5018760;28;20057;-62
2021/12/22 06:17:04;;;;;;;39.42;15.65;;;;;;;;;;5001027;28;20416;-62
2021/12/22 06:19:30;;;;;;;41.03;15.90;;;;;;;;;;5005624;28;20049;-62
2021/12/22 06:21:56;;;;;;;37.15;15.25;;;;;;;;;;5004867;28;20049;-63
2021/12/22 06:24:23;;;;;;;40.45;16.70;;;;;;;;;;5002012;28;20053;-62
2021/12/22 06:26:49;;;;;;;45.17;16.75;;;;;;;;;;5022037;28;20051;-62
2021/12/22 06:29:15;;;;;;;39.88;15.43;;;;;;;;;;5014344;28;20429;-61
2021/12/22 06:31:42;;;;;;;48.08;17.00;;;;;;;;;;5006712;28;20067;-62
2021/12/22 06:34:11;;;;;;;39.85;15.13;;;;;;;;;;4996337;28;20403;-62
2021/12/22 06:36:38;;;;;;;39.22;15.70;;;;;;;;;;5021788;28;20058;-62
2021/12/22 06:39:05;;;;;;;45.58;17.40;;;;;;;;;;5022709;28;20053;-62
2021/12/22 06:41:31;;;;;;;37.78;16.67;;;;;;;;;;5001989;28;20057;-62
2021/12/22 06:43:58;;;;;;;35.53;16.58;;;;;;;;;;5004646;28;20045;-62
2021/12/22 06:46:24;;;;;;;40.28;16.92;;;;;;;;;;4990467;28;20053;-61
2021/12/22 06:48:50;;;;;;;40.75;15.77;;;;;;;;;;4997460;28;20513;-62
2021/12/22 06:51:17;;;;;;;37.53;14.88;;;;;;;;;;4998251;28;20065;-61
2021/12/22 06:53:43;;;;;;;37.58;15.95;;;;;;;;;;5003431;28;20492;-62
2021/12/22 06:56:09;;;;;;;40.45;17.58;;;;;;;;;;5021648;28;20049;-60
2021/12/22 06:58:36;;;;;;;41.03;16.02;;;;;;;;;;5017368;28;20064;-62
2021/12/22 07:01:02;;;;;;;39.78;15.55;;;;;;;;;;5022625;28;20053;-62
2021/12/22 07:03:29;;;;;;;43.45;17.30;;;;;;;;;;5018876;28;20060;-62
2021/12/22 07:05:55;;;;;;;47.45;16.33;;;;;;;;;;5024654;28;20052;-62
2021/12/22 07:08:21;;;;;;;40.53;16.17;;;;;;;;;;5019952;28;20053;-62
2021/12/22 07:10:48;;;;;;;39.03;16.42;;;;;;;;;;5023020;28;20494;-61
2021/12/22 07:13:14;;;;;;;39.55;15.38;;;;;;;;;;5012341;28;20076;-62
2021/12/22 07:15:43;;;;;;;34.65;15.82;;;;;;;;;;5016769;28;20053;-62
2021/12/22 07:18:11;;;;;;;39.85;15.68;;;;;;;;;;5026306;28;20049;-62
2021/12/22 07:20:37;;;;;;;39.28;16.65;;;;;;;;;;5016630;28;20184;-63
2021/12/22 07:23:04;;;;;;;37.25;15.55;;;;;;;;;;5026525;28;20045;-63
2021/12/22 07:25:30;;;;;;;38.13;15.93;;;;;;;;;;5022816;28;20045;-63
2021/12/22 07:27:57;;;;;;;41.40;16.65;;;;;;;;;;5013578;28;20065;-63
2021/12/22 07:30:23;;;;;;;41.88;17.10;;;;;;;;;;5024453;28;20072;-62
2021/12/22 07:32:50;;;;;;;42.92;17.75;;;;;;;;;;5010842;28;20523;-63
2021/12/22 07:35:24;;;;;;;35.30;17.10;;;;;;;;;;5025752;28;20054;-63
2021/12/22 07:37:57;;;;;;;37.08;16.75;;;;;;;;;;5016113;28;20060;-63
2021/12/22 07:40:24;;;;;;;46.33;17.48;;;;;;;;;;5011024;28;20144;-63
2021/12/22 07:42:50;;;;;;;39.28;17.25;;;;;;;;;;5013657;28;20509;-63
2021/12/22 07:45:16;;;;;;;38.22;16.88;;;;;;;;;;5017706;28;20068;-63
2021/12/22 07:47:43;;;;;;;43.28;16.48;;;;;;;;;;5025406;28;20053;-61
2021/12/22 07:50:09;;;;;;;36.42;15.32;;;;;;;;;;5004070;28;20057;-62
2021/12/22 07:52:36;;;;;;;37.53;15.13;;;;;;;;;;5002714;28;20068;-62
2021/12/22 07:55:03;;;;;;;34.67;15.45;;;;;;;;;;5006553;28;20054;-63
2021/12/22 07:57:29;;;;;;;33.50;15.32;;;;;;;;;;5030177;28;20060;-60
2021/12/22 07:59:56;;;;;;;34.25;14.45;;;;;;;;;;5009362;28;20249;-62
2021/12/22 08:02:22;;;;;;;35.85;15.65;;;;;;;;;;5021923;28;20054;-62
2021/12/22 08:04:49;;;;;;;35.40;15.45;;;;;;;;;;5023773;28;20045;-63
2021/12/22 08:07:15;;;;;;;34.28;14.52;;;;;;;;;;5012889;28;20053;-63
2021/12/22 08:09:41;;;;;;;34.03;15.95;;;;;;;;;;5002899;28;20561;-63
2021/12/22 08:12:07;;;;;;;33.92;15.77;;;;;;;;;;4990088;28;20054;-63
2021/12/22 08:14:35;;;;;;;37.17;15.93;;;;;;;;;;5026083;28;20246;-63
2021/12/22 08:17:01;;;;;;;35.60;15.70;;;;;;;;;;5017533;28;20045;-62
2021/12/22 08:19:28;;;;;;;38.38;15.55;;;;;;;;;;5023178;28;20074;-62
2021/12/22 08:21:55;;;;;;;37.78;16.48;;;;;;;;;;5016498;28;20573;-62
2021/12/22 08:24:22;;;;;;;32.65;14.85;;;;;;;;;;5014264;28;20060;-62
2021/12/22 08:26:49;;;;;;;36.63;15.98;;;;;;;;;;5025173;28;20056;-60
2021/12/22 08:29:15;;;;;;;35.03;16.83;;;;;;;;;;5019351;28;20064;-62
2021/12/22 08:31:42;;;;;;;36.03;15.18;;;;;;;;;;5022377;28;20049;-63
2021/12/22 08:34:10;;;;;;;32.03;14.90;;;;;;;;;;5012154;28;20049;-63
2021/12/22 08:39:23;;;;;;;31.27;15.27;;;;;;;;;;5023603;28;20425;-62
2021/12/22 08:41:50;;;;;;;35.00;15.68;;;;;;;;;;5009531;28;20045;-63
2021/12/22 08:44:18;;;;;;;32.60;14.25;;;;;;;;;;5022781;28;20069;-62
2021/12/22 08:46:46;;;;;;;;;;;;;;;;;;5016609;28;20049;-63
2021/12/22 08:49:13;;;;;;;33.92;14.77;;;;;;;;;;5019175;28;19936;-62
2021/12/22 08:51:39;;;;;;;35.58;15.95;;;;;;;;;;5011386;28;20049;-62
2021/12/22 08:54:06;;;;;;;33.63;15.25;;;;;;;;;;5023225;28;20053;-62
2021/12/22 08:56:33;;;;;;;33.90;14.80;;;;;;;;;;5023850;28;20479;-62
2021/12/22 08:59:00;;;;;;;38.55;17.67;;;;;;;;;;5017730;28;20049;-61
2021/12/22 09:01:27;;;;;;;36.72;15.55;;;;;;;;;;5024783;28;20045;-60
2021/12/22 09:03:54;;;;;;;40.50;15.88;;;;;;;;;;5008341;28;20053;-62
2021/12/22 09:06:21;;;;;;;34.53;15.60;;;;;;;;;;5020370;28;20537;-62
2021/12/22 09:08:51;;;;;;;32.88;14.30;;;;;;;;;;5014833;28;20079;-62
2021/12/22 09:11:17;;;;;;;31.48;14.40;;;;;;;;;;5018893;28;20050;-62
2021/12/22 09:13:43;;;;;;;31.05;15.45;;;;;;;;;;5012932;28;20057;-61
2021/12/22 09:16:11;;;;;;;31.55;15.02;;;;;;;;;;5014979;28;20438;-62
2021/12/22 09:18:38;;;;;;;30.80;14.15;;;;;;;;;;5017612;28;20131;-62
2021/12/22 09:21:05;;;;;;;30.75;13.85;;;;;;;;;;5014755;28;20438;-62
2021/12/22 09:23:32;;;;;;;27.13;13.38;;;;;;;;;;5023239;28;20049;-60
2021/12/22 09:25:58;;;;;;;31.10;13.70;;;;;;;;;;5015343;28;20091;-62
2021/12/22 09:28:25;;;;;;;30.63;14.77;;;;;;;;;;5023128;28;20057;-63
2021/12/22 09:30:51;;;;;;;25.35;12.88;;;;;;;;;;5011814;28;20144;-62
2021/12/22 09:33:18;;;;;;;28.05;14.13;;;;;;;;;;5009651;28;20160;-62
2021/12/22 09:35:46;;;;;;;27.33;12.80;;;;;;;;;;5023088;28;20655;-63
2021/12/22 09:38:13;;;;;;;25.93;12.47;;;;;;;;;;5015541;28;20049;-63
2021/12/22 09:40:39;;;;;;;23.15;11.80;;;;;;;;;;5021482;28;20053;-62
2021/12/22 09:43:05;;;;;;;33.65;12.95;;;;;;;;;;5006889;28;20053;-62
2021/12/22 09:45:34;;;;;;;23.60;12.63;;;;;;;;;;5018108;28;20462;-63
2021/12/22 09:48:23;;;;;;;;;;;;;;;;;;5010286;28;20115;-62
2021/12/22 09:52:15;;;;;;;25.77;11.63;;;;;;;;;;5022003;28;19925;-62
2021/12/22 09:53:43;;;;;;;22.20;11.18;;;;;;;;;;5015758;28;20073;-62
2021/12/22 09:56:19;;;;;;;23.92;10.95;;;;;;;;;;5021534;28;20541;-63
2021/12/22 09:58:46;;;;;;;21.05;10.07;;;;;;;;;;5019289;28;20068;-62
2021/12/22 10:01:13;;;;;;;20.23;10.55;;;;;;;;;;5009200;28;20057;-63
2021/12/22 10:03:40;;;;;;;22.05;10.45;;;;;;;;;;5021236;28;20080;-62
2021/12/22 10:06:06;;;;;;;20.30;10.85;;;;;;;;;;5013777;28;20057;-62
2021/12/22 10:08:34;;;;;;;21.17;10.75;;;;;;;;;;5022399;28;20045;-61
2021/12/22 10:11:02;;;;;;;15.88;9.40;;;;;;;;;;5012106;28;20049;-62
2021/12/22 10:13:29;;;;;;;20.67;10.10;;;;;;;;;;5001400;28;20498;-62
2021/12/22 10:15:56;;;;;;;21.75;10.68;;;;;;;;;;5020257;28;20550;-63
2021/12/22 10:18:24;;;;;;;21.83;10.85;;;;;;;;;;5013023;28;20053;-63
2021/12/22 10:20:51;;;;;;;20.75;11.05;;;;;;;;;;5020558;28;20498;-63
2021/12/22 10:23:29;;;;;;;17.52;9.90;;;;;;;;;;5013399;28;20053;-62
2021/12/22 10:26:00;;;;;;;16.48;8.35;;;;;;;;;;5015618;28;20068;-63
2021/12/22 10:28:31;;;;;;;21.63;10.32;;;;;;;;;;5008905;28;20433;-62
2021/12/22 10:30:58;;;;;;;20.27;11.00;;;;;;;;;;5020357;28;20100;-62
2021/12/22 10:33:26;;;;;;;19.70;9.40;;;;;;;;;;5013304;28;20557;-62
2021/12/22 10:35:57;;;;;;;20.52;10.85;;;;;;;;;;5003838;28;20375;-63
2021/12/22 10:38:25;;;;;;;18.73;10.10;;;;;;;;;;5022345;28;20050;-63
2021/12/22 10:40:56;;;;;;;22.40;10.70;;;;;;;;;;4988272;28;20060;-62
2021/12/22 10:43:24;;;;;;;22.27;10.05;;;;;;;;;;5019388;28;20057;-62
2021/12/22 10:45:53;;;;;;;21.63;11.65;;;;;;;;;;5013157;28;20072;-64
2021/12/22 10:51:05;;;;;;;16.63;10.43;;;;;;;;;;5012426;28;20549;-63
2021/12/22 10:53:39;;;;;;;19.58;10.13;;;;;;;;;;5016751;28;20482;-63
2021/12/22 10:56:05;;;;;;;20.10;10.45;;;;;;;;;;5016385;28;20494;-63
2021/12/22 10:58:34;;;;;;;18.70;10.45;;;;;;;;;;5014018;28;20053;-63
2021/12/22 11:01:03;;;;;;;16.80;10.10;;;;;;;;;;5021601;28;20054;-62
2021/12/22 11:03:40;;;;;;;18.00;10.23;;;;;;;;;;5013610;28;20054;-63
2021/12/22 11:06:14;;;;;;;17.35;8.93;;;;;;;;;;5021960;28;20438;-63
2021/12/22 11:08:41;;;;;;;23.60;10.60;;;;;;;;;;5007365;28;20413;-63
2021/12/22 11:11:11;;;;;;;21.48;10.52;;;;;;;;;;5015102;28;20071;-63
2021/12/22 11:13:37;;;;;;;17.27;10.10;;;;;;;;;;5013511;28;20056;-63
2021/12/22 11:16:09;;;;;;;21.15;10.60;;;;;;;;;;5020144;28;20477;-63
2021/12/22 11:18:36;;;;;;;17.67;9.88;;;;;;;;;;5021057;28;20136;-61
2021/12/22 11:21:15;;;;;;;18.48;9.82;;;;;;;;;;5009842;28;20486;-62
2021/12/22 11:23:41;;;;;;;18.33;9.15;;;;;;;;;;5000959;28;20049;-63
2021/12/22 11:26:08;;;;;;;22.05;11.07;;;;;;;;;;5005574;28;20131;-63
2021/12/22 11:28:34;;;;;;;15.88;8.85;;;;;;;;;;5013540;28;20172;-61
2021/12/22 11:31:02;;;;;;;19.23;10.73;;;;;;;;;;5014263;28;20508;-63
2021/12/22 11:33:30;;;;;;;17.20;10.07;;;;;;;;;;5020120;28;20068;-63
2021/12/22 11:35:57;;;;;;;18.98;9.60;;;;;;;;;;5016479;28;20080;-63
2021/12/22 11:38:25;;;;;;;18.67;10.20;;;;;;;;;;5011321;28;20064;-63
2021/12/22 11:41:07;;;;;;;19.30;10.93;;;;;;;;;;5016858;28;20426;-63
2021/12/22 11:43:37;;;;;;;18.30;9.85;;;;;;;;;;4980993;28;20061;-64
2021/12/22 11:46:04;;;;;;;16.35;10.00;;;;;;;;;;5022754;28;20154;-63
2021/12/22 11:48:31;;;;;;;18.15;10.98;;;;;;;;;;5013223;28;20057;-63
2021/12/22 11:50:58;;;;;;;19.45;10.10;;;;;;;;;;5018903;28;20057;-64
2021/12/22 11:53:24;;;;;;;18.73;10.40;;;;;;;;;;5015058;28;20458;-62
2021/12/22 11:55:57;;;;;;;13.50;9.00;;;;;;;;;;5022876;28;20391;-63
2021/12/22 11:58:32;;;;;;;21.42;11.18;;;;;;;;;;5017900;28;20050;-63
2021/12/22 12:01:02;;;;;;;19.88;10.93;;;;;;;;;;5015776;28;20058;-63
2021/12/22 12:03:31;;;;;;;16.75;9.77;;;;;;;;;;5017562;28;20053;-62
2021/12/22 12:06:11;;;;;;;15.73;9.85;;;;;;;;;;5008732;28;20045;-64
2021/12/22 12:08:50;;;;;;;17.50;9.90;;;;;;;;;;5024869;28;20091;-64
2021/12/22 12:11:21;;;;;;;19.77;10.00;;;;;;;;;;5014853;28;20049;-64
2021/12/22 12:13:52;;;;;;;19.45;9.95;;;;;;;;;;5023900;28;20058;-64
2021/12/22 12:22:12;;;;;;;20.35;10.43;;;;;;;;;;5015479;28;21135;-65
2021/12/22 12:24:40;;;;;;;19.73;9.27;;;;;;;;;;5023619;28;20243;-65
2021/12/22 12:27:25;;;;;;;19.45;9.43;;;;;;;;;;5023334;28;20140;-65
2021/12/22 12:29:55;;;;;;;19.58;10.60;;;;;;;;;;4996184;28;20046;-65
2021/12/22 12:32:39;;;;;;;19.35;10.18;;;;;;;;;;5017038;28;20406;-65
2021/12/22 12:35:26;;;;;;;15.90;9.02;;;;;;;;;;5015154;28;20053;-65
2021/12/22 12:38:11;;;;;;;15.20;8.40;;;;;;;;;;5021654;28;20791;-65
2021/12/22 12:41:00;;;;;;;15.48;9.75;;;;;;;;;;5001177;28;20058;-66
2021/12/22 12:43:44;;;;;;;15.32;8.32;;;;;;;;;;5016715;28;20088;-63
2021/12/22 12:46:19;;;;;;;20.88;9.52;;;;;;;;;;5010002;28;20052;-66
2021/12/22 12:48:46;;;;;;;18.33;10.23;;;;;;;;;;5019061;28;20046;-65
2021/12/22 12:51:17;;;;;;;17.10;9.48;;;;;;;;;;5015385;28;20061;-67
2021/12/22 12:53:45;;;;;;;14.88;8.77;;;;;;;;;;5022612;28;20056;-67
2021/12/22 12:56:12;;;;;;;15.10;9.63;;;;;;;;;;5007777;28;20056;-67
2021/12/22 12:58:54;;;;;;;19.08;9.60;;;;;;;;;;5012792;28;20057;-68
2021/12/22 13:01:39;;;;;;;15.82;9.15;;;;;;;;;;5011014;28;20064;-67
2021/12/22 13:04:26;;;;;;;16.45;8.85;;;;;;;;;;5014963;28;20060;-67
2021/12/22 13:07:02;;;;;;;15.73;9.60;;;;;;;;;;5022833;28;20053;-68
2021/12/22 13:09:29;;;;;;;18.42;8.65;;;;;;;;;;5015499;28;20061;-67
2021/12/22 13:12:02;;;;;;;17.23;9.20;;;;;;;;;;5013044;28;20053;-67
2021/12/22 13:17:22;;;;;;;20.05;11.05;;;;;;;;;;5015714;28;20056;-67
2021/12/22 13:19:50;;;;;;;22.55;12.25;;;;;;;;;;5015190;28;20057;-67
2021/12/22 13:22:20;;;;;;;18.10;11.05;;;;;;;;;;5022675;28;20049;-67
2021/12/22 13:24:46;;;;;;;14.85;9.10;;;;;;;;;;5022950;28;20049;-67
2021/12/22 13:27:24;;;;;;;18.27;10.40;;;;;;;;;;5010038;28;20085;-67
2021/12/22 13:30:08;;;;;;;16.00;8.95;;;;;;;;;;5018776;28;20049;-67
2021/12/22 13:32:35;;;;;;;23.00;12.02;;;;;;;;;;5005975;28;20603;-67
2021/12/22 13:35:02;;;;;;;18.40;10.00;;;;;;;;;;5023320;28;20431;-67
2021/12/22 13:37:30;;;;;;;20.05;11.40;;;;;;;;;;5014998;28;20326;-67
2021/12/22 13:39:56;;;;;;;17.52;8.98;;;;;;;;;;5017549;28;20057;-66
2021/12/22 13:42:23;;;;;;;15.63;9.60;;;;;;;;;;5007785;28;20068;-68
2021/12/22 13:44:49;;;;;;;16.08;8.82;;;;;;;;;;5016422;28;20049;-67
2021/12/22 13:47:16;;;;;;;20.67;9.20;;;;;;;;;;5022532;28;20089;-67
2021/12/22 13:49:42;;;;;;;18.80;9.85;;;;;;;;;;5014101;28;20140;-67
2021/12/22 13:52:08;;;;;;;17.42;9.38;;;;;;;;;;5022917;28;20144;-67
2021/12/22 13:54:35;;;;;;;18.30;9.38;;;;;;;;;;5010436;28;20049;-67
2021/12/22 13:57:04;;;;;;;18.67;9.43;;;;;;;;;;5018690;28;20041;-67
2021/12/22 13:59:30;;;;;;;;;;;;;;;;;;5014823;28;20387;-67
2021/12/22 14:01:57;;;;;;;22.65;10.73;;;;;;;;;;5020465;28;19924;-67
2021/12/22 14:04:29;;;;;;;21.83;11.32;;;;;;;;;;5021935;28;20561;-67
2021/12/22 14:07:06;;;;;;;19.95;11.43;;;;;;;;;;5011136;28;20581;-67
2021/12/22 14:09:36;;;;;;;22.20;12.23;;;;;;;;;;5016867;28;20052;-67
2021/12/22 14:12:10;;;;;;;22.15;12.73;;;;;;;;;;5005363;28;20111;-67
2021/12/22 14:14:38;;;;;;;23.48;13.68;;;;;;;;;;5022180;28;20053;-67
2021/12/22 14:17:14;;;;;;;21.87;12.40;;;;;;;;;;5015816;28;20490;-67
2021/12/22 14:19:49;;;;;;;22.95;13.85;;;;;;;;;;5022037;28;20076;-67
2021/12/22 14:22:18;;;;;;;22.33;13.40;;;;;;;;;;5017497;28;20053;-67
2021/12/22 14:24:47;;;;;;;26.52;13.68;;;;;;;;;;4993367;28;20131;-67
2021/12/22 14:27:15;;;;;;;23.23;13.40;;;;;;;;;;5022082;28;20454;-67
2021/12/22 14:29:49;;;;;;;24.25;13.43;;;;;;;;;;5012902;28;20061;-67
2021/12/22 14:32:34;;;;;;;22.10;12.40;;;;;;;;;;5021323;28;20064;-67
2021/12/22 14:35:03;;;;;;;22.25;12.85;;;;;;;;;;4999079;28;20072;-67
2021/12/22 14:37:29;;;;;;;;;;;;;;;;;;5015806;28;20136;-67
2021/12/22 14:39:56;;;;;;;22.45;13.60;;;;;;;;;;5013335;28;20274;-66
2021/12/22 14:42:27;;;;;;;18.98;12.00;;;;;;;;;;5008702;28;20141;-67
2021/12/22 14:45:13;;;;;;;25.27;13.20;;;;;;;;;;5005515;28;20057;-66
2021/12/22 14:47:39;;;;;;;20.80;12.63;;;;;;;;;;5021556;28;20065;-66
2021/12/22 14:50:13;;;;;;;23.52;13.05;;;;;;;;;;5017930;28;20056;-67
2021/12/22 14:52:59;;;;;;;23.27;12.23;;;;;;;;;;5009405;28;20112;-66
2021/12/22 14:55:35;;;;;;;25.80;12.93;;;;;;;;;;5015061;28;20046;-66